LFRG/DOL METAR and TAF weather

Enter ICAO airport designator
Station Type Date Time Source
LFRG METAR 2019/09/21 21:30 UTC NOAA

LFRG 212130Z AUTO 14004KT 060V190 CAVOK 22/14 Q1007


Station Type Date Time Source
LFRG Decoded METAR 2019/09/21 21:30 UTC NOAA

Station name not available
Sep 21, 2019 - 05:30 PM EDT / 2019.09.21 2130 UTC
Wind: from the SE (140 degrees) at 5 MPH (4 KT) (direction variable):0
Visibility: greater than 7 mile(s):0
Temperature: 71 F (22 C)
Dew Point: 57 F (14 C)
Relative Humidity: 60%
Pressure (altimeter): 29.74 in. Hg (1007 hPa)
ob: LFRG 212130Z AUTO 14004KT 060V190 CAVOK 22/14 Q1007
cycle: 21

Station Type Date Time Source
LFRG TAF 2014/12/22 18:42 UTC NOAA

TAF
AMD TAF
AMD LFRG 221837Z 2218/2221 25015KT 9999 OVC015
TEMPO 2218/2221 BKN007 PROB30
TEMPO 2218/2221 25015G25KT 4000 DZ BKN003

Example: see airport list